Time;durP1;ratioP1;P1;durP2;ratioP2;P2;SDS_P1;SDS_P2;PMS_P1;PMS_P2;Temp;Humidity;BMP_temperature;BMP_pressure;BME280_temperature;BME280_humidity;BME280_pressure;Samples;Min_cycle;Max_cycle;Signal;HPM_P1;HPM_P2
2023/03/09 00:00:22;;;;;;;;;1.00;0.00;;;;;11.75;100.00;99216.72;5014008;28;45790;-79
2023/03/09 00:02:48;;;;;;;;;3.33;1.00;;;;;11.74;100.00;99205.25;5013773;28;45628;-77
2023/03/09 00:05:15;;;;;;;;;0.67;0.00;;;;;11.76;100.00;99218.44;5013980;28;45468;-79
2023/03/09 00:07:41;;;;;;;;;0.33;0.00;;;;;11.74;100.00;99228.19;5007049;28;46171;-76
2023/03/09 00:10:07;;;;;;;;;1.00;0.00;;;;;11.71;100.00;99237.03;5014051;28;45431;-77
2023/03/09 00:12:32;;;;;;;;;2.00;1.00;;;;;11.69;100.00;99232.69;5008090;28;45773;-77
2023/03/09 00:14:58;;;;;;;;;0.00;0.00;;;;;11.65;100.00;99234.53;5014552;28;45465;-76
2023/03/09 00:17:23;;;;;;;;;0.00;0.00;;;;;11.65;100.00;99244.22;5014682;28;65991;-78
2023/03/09 00:19:48;;;;;;;;;1.00;0.00;;;;;11.63;100.00;99249.56;5009309;28;61046;-76
2023/03/09 00:22:14;;;;;;;;;0.67;0.00;;;;;11.60;100.00;99248.72;5019507;28;57766;-79
2023/03/09 00:24:45;;;;;;;;;2.00;1.00;;;;;11.58;100.00;99246.13;5016863;28;66925;-79
2023/03/09 00:27:10;;;;;;;;;2.00;0.33;;;;;11.53;100.00;99250.63;5143805;22;45444;-76
2023/03/09 00:29:36;;;;;;;;;0.00;0.00;;;;;11.54;100.00;99258.50;5039979;28;45530;-78
2023/03/09 00:32:01;;;;;;;;;0.67;0.00;;;;;11.55;100.00;99267.31;5048317;28;60055;-79
2023/03/09 00:34:26;;;;;;;;;0.00;0.00;;;;;11.48;100.00;99263.03;5048329;28;68297;-78
2023/03/09 00:36:52;;;;;;;;;0.00;0.00;;;;;11.46;100.00;99268.38;5052103;28;66436;-78
2023/03/09 00:39:17;;;;;;;;;2.67;0.00;;;;;11.46;100.00;99262.22;5046743;28;45390;-76
2023/03/09 00:41:42;;;;;;;;;0.00;0.00;;;;;11.47;100.00;99263.94;5055521;28;45390;-77
2023/03/09 00:44:10;;;;;;;;;0.00;0.00;;;;;11.45;100.00;99271.00;5038758;28;45296;-76
2023/03/09 00:46:35;;;;;;;;;3.00;0.00;;;;;11.45;100.00;99277.19;5055819;28;45384;-76
2023/03/09 00:49:03;;;;;;;;;0.00;0.00;;;;;11.45;100.00;99274.56;5056201;28;45454;-77
2023/03/09 00:51:28;;;;;;;;;0.67;0.00;;;;;11.43;100.00;99284.25;5055251;28;45624;-77
2023/03/09 00:53:55;;;;;;;;;2.00;0.67;;;;;11.42;100.00;99287.81;5055255;28;46597;-77
2023/03/09 00:56:22;;;;;;;;;0.00;0.00;;;;;11.41;100.00;99279.91;5049835;28;45615;-77
2023/03/09 00:58:48;;;;;;;;;2.00;0.00;;;;;11.39;100.00;99290.50;5053403;28;45456;-78
2023/03/09 01:01:15;;;;;;;;;0.00;0.00;;;;;11.41;100.00;99306.34;5053550;28;59496;-77
2023/03/09 01:03:40;;;;;;;;;1.67;0.00;;;;;11.38;100.00;99299.31;5054476;28;46714;-79
2023/03/09 01:06:06;;;;;;;;;2.00;0.00;;;;;11.38;100.00;99299.31;5049024;28;63678;-79
2023/03/09 01:08:32;;;;;;;;;2.33;0.00;;;;;11.38;100.00;99309.03;5035669;28;45240;-77
2023/03/09 01:10:58;;;;;;;;;0.00;0.00;;;;;11.35;100.00;99302.03;5048435;28;45625;-78
2023/03/09 01:13:23;;;;;;;;;1.00;0.00;;;;;11.35;100.00;99320.53;5035934;28;46116;-78
2023/03/09 01:15:48;;;;;;;;;0.00;0.00;;;;;11.35;100.00;99315.25;5047754;28;45403;-76
2023/03/09 01:18:14;;;;;;;;;0.00;0.00;;;;;11.34;100.00;99313.47;5049500;28;59085;-77
2023/03/09 01:20:39;;;;;;;;;1.00;0.00;;;;;11.34;100.00;99296.75;5044664;28;55459;-76
2023/03/09 01:23:05;;;;;;;;;1.33;0.00;;;;;11.33;100.00;99310.88;5051587;28;66300;-79
2023/03/09 01:25:30;;;;;;;;;1.00;0.00;;;;;11.31;100.00;99313.56;5053756;28;45419;-79
2023/03/09 01:27:55;;;;;;;;;0.00;0.00;;;;;11.32;100.00;99331.16;5054531;28;59429;-76
2023/03/09 01:30:21;;;;;;;;;0.00;0.00;;;;;11.31;100.00;99333.81;5055332;28;45548;-78
2023/03/09 01:32:46;;;;;;;;;0.00;0.00;;;;;11.31;100.00;99337.34;5055541;28;46471;-77
2023/03/09 01:35:12;;;;;;;;;0.33;0.33;;;;;11.31;100.00;99350.53;5053943;28;68374;-77
2023/03/09 01:37:37;;;;;;;;;0.00;0.00;;;;;11.31;100.00;99357.59;5054525;28;45454;-77
2023/03/09 01:40:06;;;;;;;;;0.00;0.00;;;;;11.28;100.00;99351.44;5055378;28;45463;-78
2023/03/09 01:42:32;;;;;;;;;2.33;0.00;;;;;11.28;100.00;99356.72;5037776;28;47358;-76
2023/03/09 01:45:18;;;;;;;;;0.00;0.00;;;;;11.31;100.00;99365.53;5055014;28;45610;-77
2023/03/09 01:47:47;;;;;;;;;2.33;0.00;;;;;11.28;100.00;99369.94;5055122;28;45228;-79
2023/03/09 01:50:14;;;;;;;;;2.00;0.00;;;;;11.30;100.00;99362.00;5048384;28;45500;-77
2023/03/09 01:52:42;;;;;;;;;1.00;0.00;;;;;11.28;100.00;99366.44;5054516;28;46714;-77
2023/03/09 01:55:13;;;;;;;;;2.00;1.00;;;;;11.31;100.00;99366.41;5040077;28;45371;-78
2023/03/09 01:57:47;;;;;;;;;4.67;0.00;;;;;11.37;100.00;99373.34;5058214;28;45542;-79
2023/03/09 02:00:17;;;;;;;;;0.00;0.00;;;;;11.38;100.00;99361.88;5057987;28;46307;-78
2023/03/09 02:02:45;;;;;;;;;1.00;0.00;;;;;11.42;100.00;99364.47;5057694;28;45887;-78
2023/03/09 02:05:17;;;;;;;;;0.00;0.00;;;;;11.45;100.00;99364.41;5057959;28;45512;-77
2023/03/09 02:07:45;;;;;;;;;0.00;0.00;;;;;11.45;100.00;99368.81;5046823;28;45228;-78
2023/03/09 02:10:15;;;;;;;;;1.33;0.00;;;;;11.44;100.00;99365.28;5040552;28;45579;-78
2023/03/09 02:12:41;;;;;;;;;1.00;0.00;;;;;11.49;100.00;99373.16;5047175;28;46962;-77
2023/03/09 02:15:07;;;;;;;;;0.00;0.00;;;;;11.52;100.00;99376.63;5057156;28;45403;-78
2023/03/09 02:17:32;;;;;;;;;2.33;0.00;;;;;11.57;100.00;99387.13;5057546;28;45379;-79
2023/03/09 02:20:07;;;;;;;;;2.00;0.00;;;;;11.60;100.00;99373.84;5057506;28;45407;-78
2023/03/09 02:22:35;;;;;;;;;0.00;0.00;;;;;11.62;100.00;99384.41;5057250;28;47228;-77
2023/03/09 02:25:05;;;;;;;;;2.00;0.00;;;;;11.62;100.00;99393.22;5056586;28;45474;-77
2023/03/09 02:27:31;;;;;;;;;2.00;0.00;;;;;11.69;100.00;99399.28;5057769;28;45235;-77
2023/03/09 02:29:56;;;;;;;;;0.00;0.00;;;;;11.70;100.00;99403.66;5039703;28;45389;-77
2023/03/09 02:32:22;;;;;;;;;3.00;1.00;;;;;11.75;100.00;99391.22;5039979;28;46640;-78
2023/03/09 02:34:48;;;;;;;;;1.33;0.33;;;;;11.76;100.00;99404.41;5057403;28;45362;-78
2023/03/09 02:37:27;;;;;;;;;0.00;0.00;;;;;11.80;100.00;99397.31;5056911;28;45211;-78
2023/03/09 02:39:56;;;;;;;;;0.67;0.67;;;;;11.82;100.00;99382.31;5057175;28;45386;-77
2023/03/09 02:42:21;;;;;;;;;4.00;1.00;;;;;11.81;100.00;99414.91;5057689;28;46556;-76
2023/03/09 02:44:48;;;;;;;;;2.00;0.00;;;;;11.85;100.00;99423.72;5057017;28;67192;-77
2023/03/09 02:47:18;;;;;;;;;1.33;0.00;;;;;11.81;100.00;99414.91;5041266;28;46713;-76
2023/03/09 02:49:43;;;;;;;;;0.00;0.00;;;;;11.79;100.00;99416.72;5055020;28;45464;-76
2023/03/09 02:52:08;;;;;;;;;1.00;1.00;;;;;11.76;100.00;99415.00;5041323;28;46292;-77
2023/03/09 02:54:34;;;;;;;;;0.67;0.00;;;;;11.78;100.00;99420.28;5054359;28;45586;-76
2023/03/09 02:56:59;;;;;;;;;0.00;0.00;;;;;11.79;100.00;99414.09;5050269;28;59942;-77
2023/03/09 02:59:24;;;;;;;;;1.67;0.67;;;;;11.84;100.00;99429.91;5053424;28;62581;-76
2023/03/09 03:01:50;;;;;;;;;1.00;1.00;;;;;11.87;100.00;99425.44;5050976;28;70978;-77
2023/03/09 03:04:15;;;;;;;;;1.00;1.00;;;;;11.92;100.00;99438.56;5057412;28;45406;-79
2023/03/09 03:06:40;;;;;;;;;0.00;0.00;;;;;11.95;100.00;99436.75;5051405;28;62343;-77
2023/03/09 03:09:06;;;;;;;;;2.00;0.67;;;;;11.95;100.00;99426.19;5056020;28;64160;-77
2023/03/09 03:11:31;;;;;;;;;1.67;0.00;;;;;11.99;100.00;99433.19;5056634;28;46582;-77
2023/03/09 03:13:57;;;;;;;;;8.33;0.00;;;;;12.02;100.00;99437.53;5056559;28;45695;-77
2023/03/09 03:16:22;;;;;;;;;1.00;0.00;;;;;12.02;100.00;99433.09;5055587;28;45233;-78
2023/03/09 03:18:47;;;;;;;;;0.33;0.00;;;;;12.06;100.00;99434.81;5046616;28;45523;-76
2023/03/09 03:21:13;;;;;;;;;2.67;0.67;;;;;12.07;100.00;99440.97;5056253;28;71284;-77
2023/03/09 03:23:38;;;;;;;;;2.00;0.00;;;;;12.11;100.00;99447.09;5055969;28;68264;-78
2023/03/09 03:26:08;;;;;;;;;2.67;0.00;;;;;12.12;100.00;99447.06;5056604;28;47649;-79
2023/03/09 03:28:34;;;;;;;;;3.00;1.00;;;;;12.14;100.00;99450.53;5057454;28;46081;-77
2023/03/09 03:30:59;;;;;;;;;2.00;0.00;;;;;12.14;100.00;99444.38;5056638;28;45737;-76
2023/03/09 03:33:25;;;;;;;;;1.33;0.67;;;;;12.10;100.00;99448.88;5056440;28;45507;-78
2023/03/09 03:35:50;;;;;;;;;0.00;0.00;;;;;12.13;100.00;99467.31;5057294;28;45332;-77
2023/03/09 03:38:15;;;;;;;;;0.67;0.00;;;;;12.12;100.00;99470.88;5056270;28;53813;-77
2023/03/09 03:40:41;;;;;;;;;1.67;0.33;;;;;12.12;100.00;99481.44;5057184;28;46766;-76
2023/03/09 03:43:06;;;;;;;;;2.67;1.33;;;;;12.09;100.00;99465.66;5056263;28;57820;-77
2023/03/09 03:45:31;;;;;;;;;0.00;0.00;;;;;12.11;100.00;99465.59;5020972;28;45338;-76
2023/03/09 03:47:57;;;;;;;;;0.00;0.00;;;;;12.10;100.00;99463.88;5056616;28;45467;-79
2023/03/09 03:50:22;;;;;;;;;1.00;1.00;;;;;12.08;100.00;99463.88;5056954;28;48707;-77
2023/03/09 03:52:47;;;;;;;;;2.00;0.00;;;;;12.10;100.00;99477.09;5055617;28;66233;-77
2023/03/09 03:55:13;;;;;;;;;2.33;1.00;;;;;12.12;100.00;99475.28;5056667;28;45418;-76
2023/03/09 03:57:38;;;;;;;;;0.00;0.00;;;;;12.12;100.00;99477.94;5055974;28;59680;-78
2023/03/09 04:00:10;;;;;;;;;1.00;0.00;;;;;12.11;100.00;99485.00;5055865;28;72873;-78
2023/03/09 04:02:36;;;;;;;;;2.00;0.33;;;;;12.12;100.00;99485.88;5056710;28;45868;-78
2023/03/09 04:05:02;;;;;;;;;1.67;0.00;;;;;12.13;100.00;99498.19;5056314;28;45397;-79
2023/03/09 04:07:28;;;;;;;;;3.00;0.00;;;;;12.13;100.00;99492.91;5056818;28;45527;-77
2023/03/09 04:09:53;;;;;;;;;2.00;1.00;;;;;12.11;100.00;99494.72;5055343;28;45494;-77
2023/03/09 04:12:18;;;;;;;;;0.00;0.00;;;;;12.09;100.00;99501.78;5055954;28;45478;-77
2023/03/09 04:14:44;;;;;;;;;3.33;2.00;;;;;12.05;100.00;99506.28;5055149;28;62223;-77
2023/03/09 04:17:09;;;;;;;;;0.67;0.00;;;;;12.03;100.00;99511.56;5048128;28;45443;-77
2023/03/09 04:19:35;;;;;;;;;0.67;0.67;;;;;12.05;100.00;99501.84;5056543;28;46184;-78
2023/03/09 04:22:00;;;;;;;;;2.00;0.00;;;;;12.06;100.00;99511.53;5056087;28;45511;-79
2023/03/09 04:24:25;;;;;;;;;0.00;0.00;;;;;12.11;100.00;99507.94;5054838;28;45493;-77
2023/03/09 04:26:51;;;;;;;;;4.00;1.00;;;;;12.11;100.00;99514.09;5052290;28;54543;-78
2023/03/09 04:29:16;;;;;;;;;0.00;0.00;;;;;12.16;100.00;99520.19;5048324;28;47720;-76
2023/03/09 04:31:41;;;;;;;;;1.67;0.67;;;;;12.16;100.00;99520.19;5052253;28;68045;-77
2023/03/09 04:34:09;;;;;;;;;1.33;0.00;;;;;12.23;100.00;99521.81;5038563;28;64511;-77
2023/03/09 04:36:35;;;;;;;;;1.33;0.00;;;;;12.24;100.00;99520.94;5037444;28;45382;-77
2023/03/09 04:39:00;;;;;;;;;1.00;0.00;;;;;12.24;100.00;99523.56;5055548;28;66860;-76
2023/03/09 04:41:25;;;;;;;;;2.00;1.00;;;;;12.26;100.00;99535.03;5054513;28;67057;-77
2023/03/09 04:43:51;;;;;;;;;5.33;1.00;;;;;12.27;100.00;99527.97;5055116;28;62732;-78
2023/03/09 04:46:16;;;;;;;;;3.00;0.00;;;;;12.29;100.00;99547.31;5052384;28;61300;-78
2023/03/09 04:48:41;;;;;;;;;3.00;0.33;;;;;12.30;100.00;99534.09;5051249;28;46689;-77
2023/03/09 04:51:07;;;;;;;;;2.67;0.00;;;;;12.33;100.00;99556.97;5055085;28;45293;-78
2023/03/09 04:53:32;;;;;;;;;4.67;1.67;;;;;12.37;100.00;99555.16;5049823;28;59629;-77
2023/03/09 04:55:58;;;;;;;;;0.00;0.00;;;;;12.37;100.00;99555.16;5055745;28;45382;-77
2023/03/09 04:58:23;;;;;;;;;1.00;1.00;;;;;12.34;100.00;99550.75;5049173;28;45752;-77
2023/03/09 05:00:48;;;;;;;;;4.00;0.33;;;;;12.35;100.00;99557.78;5055163;28;45181;-76
2023/03/09 05:03:14;;;;;;;;;1.33;0.00;;;;;12.38;100.00;99551.59;5053352;28;65311;-77
2023/03/09 05:05:39;;;;;;;;;1.00;1.00;;;;;12.38;100.00;99543.66;5055655;28;45462;-77
2023/03/09 05:08:05;;;;;;;;;2.00;1.00;;;;;12.40;100.00;99555.94;5051590;28;60481;-77
2023/03/09 05:10:30;;;;;;;;;0.67;0.00;;;;;12.43;100.00;99562.97;5055380;28;45384;-78
2023/03/09 05:12:55;;;;;;;;;2.00;0.00;;;;;12.43;100.00;99555.03;5054704;28;62291;-77
2023/03/09 05:15:21;;;;;;;;;4.00;1.00;;;;;12.43;100.00;99563.84;5055103;28;45590;-78
2023/03/09 05:17:46;;;;;;;;;1.33;0.00;;;;;12.43;100.00;99563.84;5051376;28;53397;-80
2023/03/09 05:20:12;;;;;;;;;3.00;0.00;;;;;12.40;100.00;99563.03;5054271;28;55968;-77
2023/03/09 05:22:37;;;;;;;;;1.00;1.00;;;;;12.37;100.00;99563.09;5054611;28;45554;-77
2023/03/09 05:25:05;;;;;;;;;4.00;1.00;;;;;12.33;100.00;99572.84;5055124;28;54840;-77
2023/03/09 05:27:31;;;;;;;;;2.00;1.00;;;;;12.30;100.00;99555.25;5040171;28;45817;-79
2023/03/09 05:29:56;;;;;;;;;3.33;0.67;;;;;12.32;100.00;99561.38;5058896;28;45358;-78
2023/03/09 05:32:21;;;;;;;;;3.00;1.00;;;;;12.34;100.00;99569.28;5059348;28;45480;-77
2023/03/09 05:34:47;;;;;;;;;0.33;0.00;;;;;12.34;100.00;99569.28;5043712;28;45534;-78
2023/03/09 05:37:12;;;;;;;;;3.67;0.00;;;;;12.33;100.00;99573.72;5057019;28;45791;-78
2023/03/09 05:39:38;;;;;;;;;0.33;0.33;;;;;12.34;100.00;99579.88;5055022;28;65111;-79
2023/03/09 05:42:03;;;;;;;;;1.00;0.00;;;;;12.34;100.00;99571.94;5056252;28;45467;-79
2023/03/09 05:44:28;;;;;;;;;0.00;0.00;;;;;12.37;100.00;99568.38;5052613;28;45557;-79
2023/03/09 05:46:54;;;;;;;;;2.00;1.00;;;;;12.41;100.00;99578.91;5054685;28;72366;-79
2023/03/09 05:49:19;;;;;;;;;0.00;0.00;;;;;12.43;100.00;99566.50;5051876;28;53711;-78
2023/03/09 05:51:45;;;;;;;;;2.00;0.00;;;;;12.45;100.00;99571.75;5054442;28;58789;-78
2023/03/09 05:54:10;;;;;;;;;4.33;1.33;;;;;12.43;100.00;99573.56;5054220;28;59809;-82
2023/03/09 05:56:35;;;;;;;;;0.00;0.00;;;;;12.39;100.00;99575.38;5056365;28;64899;-79
2023/03/09 05:59:01;;;;;;;;;3.00;1.00;;;;;12.38;100.00;99593.94;5056661;28;59165;-81
2023/03/09 06:01:28;;;;;;;;;0.00;0.00;;;;;12.36;100.00;99580.75;5056956;28;45414;-81
2023/03/09 06:03:55;;;;;;;;;0.67;0.33;;;;;12.34;100.00;99590.47;5057182;28;45363;-80
2023/03/09 06:06:20;;;;;;;;;0.00;0.00;;;;;12.34;100.00;99606.34;5022290;28;47505;-81
2023/03/09 06:08:45;;;;;;;;;4.00;1.00;;;;;12.31;100.00;99598.47;5038608;28;62677;-82
2023/03/09 06:11:11;;;;;;;;;3.33;0.00;;;;;12.31;100.00;99609.94;5038166;28;45514;-82
2023/03/09 06:13:37;;;;;;;;;2.00;1.00;;;;;12.33;100.00;99596.66;5050547;28;53637;-81
2023/03/09 06:16:07;;;;;;;;;0.00;0.00;;;;;12.31;100.00;99603.78;5038795;28;46786;-79
2023/03/09 06:18:32;;;;;;;;;1.00;1.00;;;;;12.32;100.00;99616.09;5037068;28;45506;-79
2023/03/09 06:21:02;;;;;;;;;1.00;1.00;;;;;12.28;100.00;99624.97;5035638;28;45439;-78
2023/03/09 06:23:29;;;;;;;;;1.67;0.00;;;;;12.28;100.00;99630.28;5043854;28;45539;-79
2023/03/09 06:25:55;;;;;;;;;2.00;0.00;;;;;12.30;100.00;99637.31;5039445;28;45703;-80
2023/03/09 06:28:20;;;;;;;;;3.33;1.67;;;;;12.36;100.00;99632.78;5051273;28;45533;-80
2023/03/09 06:30:46;;;;;;;;;2.00;0.00;;;;;12.41;100.00;99636.22;5037172;28;61369;-80
2023/03/09 06:33:11;;;;;;;;;0.00;0.00;;;;;12.45;100.00;99637.94;5046381;28;46282;-80
2023/03/09 06:35:36;;;;;;;;;2.00;0.00;;;;;12.44;100.00;99645.00;5043663;28;46474;-80
2023/03/09 06:38:03;;;;;;;;;1.00;1.00;;;;;12.47;100.00;99649.41;5042598;28;46006;-79
2023/03/09 06:40:29;;;;;;;;;3.33;1.00;;;;;12.48;100.00;99644.06;5039333;28;45528;-80
2023/03/09 06:42:54;;;;;;;;;0.00;0.00;;;;;12.50;100.00;99644.91;5040772;28;45528;-81
2023/03/09 06:45:22;;;;;;;;;3.00;0.00;;;;;12.52;100.00;99650.22;5045458;28;61582;-82
2023/03/09 06:47:48;;;;;;;;;2.00;0.00;;;;;12.56;100.00;99650.09;5055502;28;45575;-82
2023/03/09 06:50:13;;;;;;;;;1.33;0.33;;;;;12.62;100.00;99650.91;5055853;28;45367;-83
2023/03/09 06:52:39;;;;;;;;;5.00;0.67;;;;;12.64;100.00;99646.47;5041020;28;45241;-82
2023/03/09 06:55:05;;;;;;;;;4.00;1.00;;;;;12.67;100.00;99646.41;5055512;28;45530;-82
2023/03/09 06:57:30;;;;;;;;;4.00;0.33;;;;;12.67;100.00;99652.56;5039041;28;45478;-83
2023/03/09 06:59:56;;;;;;;;;1.33;1.00;;;;;12.71;100.00;99656.94;5021587;28;62976;-82
2023/03/09 07:02:21;;;;;;;;;1.33;0.00;;;;;12.72;100.00;99663.97;5052834;28;45654;-82
2023/03/09 07:04:46;;;;;;;;;1.00;1.00;;;;;12.72;100.00;99669.28;5034462;28;70145;-82
2023/03/09 07:07:12;;;;;;;;;0.67;0.00;;;;;12.76;100.00;99678.91;5054958;28;45403;-81
2023/03/09 07:09:38;;;;;;;;;4.33;1.67;;;;;12.76;100.00;99665.69;5051421;28;45485;-81
2023/03/09 07:12:04;;;;;;;;;4.67;1.00;;;;;12.79;100.00;99689.47;5056132;28;46467;-81
2023/03/09 07:14:29;;;;;;;;;4.00;1.00;;;;;12.83;100.00;99687.63;5050974;28;46799;-79
2023/03/09 07:16:55;;;;;;;;;3.00;1.00;;;;;12.84;100.00;99686.75;5053831;28;68157;-81
2023/03/09 07:19:21;;;;;;;;;1.67;1.33;;;;;12.84;100.00;99679.69;5056678;28;45706;-81
2023/03/09 07:21:47;;;;;;;;;3.00;1.67;;;;;12.89;100.00;99682.25;5048457;28;45518;-82
2023/03/09 07:24:12;;;;;;;;;4.67;2.00;;;;;12.93;100.00;99686.59;5022641;28;48316;-81
2023/03/09 07:26:38;;;;;;;;;3.00;1.33;;;;;12.96;100.00;99680.38;5043422;28;45269;-82
2023/03/09 07:29:03;;;;;;;;;1.00;1.00;;;;;13.00;100.00;99687.38;5043995;28;45261;-81
2023/03/09 07:31:29;;;;;;;;;2.00;1.00;;;;;13.03;100.00;99692.59;5048628;28;60248;-80
2023/03/09 07:33:55;;;;;;;;;4.00;2.00;;;;;13.02;100.00;99683.78;5040131;28;46867;-81
2023/03/09 07:36:21;;;;;;;;;3.00;2.00;;;;;13.05;100.00;99691.69;5056579;28;45505;-80
2023/03/09 07:38:47;;;;;;;;;7.00;1.33;;;;;13.04;100.00;99697.00;5056688;28;58890;-81
2023/03/09 07:41:13;;;;;;;;;7.33;2.33;;;;;13.05;100.00;99710.25;5039473;28;45551;-81
2023/03/09 07:43:43;;;;;;;;;6.00;1.33;;;;;13.04;100.00;99716.41;5040462;28;46188;-83
2023/03/09 07:46:09;;;;;;;;;5.00;2.00;;;;;13.05;100.00;99712.91;5056667;28;45326;-81
2023/03/09 07:48:37;;;;;;;;;5.00;0.67;;;;;13.03;100.00;99714.69;5047359;28;45545;-81
2023/03/09 07:51:03;;;;;;;;;5.00;2.00;;;;;13.02;100.00;99714.72;5056744;28;45458;-81
2023/03/09 07:53:32;;;;;;;;;5.33;1.00;;;;;12.99;100.00;99720.91;5052277;28;46321;-81
2023/03/09 07:56:00;;;;;;;;;4.00;1.00;;;;;13.01;100.00;99712.97;5036070;28;45378;-81
2023/03/09 07:58:26;;;;;;;;;4.33;2.00;;;;;13.01;100.00;99713.84;5055829;28;45373;-81
2023/03/09 08:00:51;;;;;;;;;5.00;0.33;;;;;13.00;100.00;99735.06;5056011;28;45528;-80
2023/03/09 08:03:17;;;;;;;;;3.67;0.33;;;;;13.01;100.00;99732.38;5053552;28;47325;-81
2023/03/09 08:05:42;;;;;;;;;2.00;1.00;;;;;13.02;100.00;99720.88;5053883;28;66420;-81
2023/03/09 08:08:08;;;;;;;;;2.67;2.00;;;;;13.09;100.00;99724.28;5056040;28;45839;-81
2023/03/09 08:10:34;;;;;;;;;4.00;1.00;;;;;13.18;100.00;99721.50;5053190;28;45518;-81
2023/03/09 08:12:59;;;;;;;;;6.33;2.67;;;;;13.23;100.00;99724.97;5056363;28;46730;-80
2023/03/09 08:15:25;;;;;;;;;2.67;1.00;;;;;13.31;100.00;99725.69;5036539;28;45497;-82
2023/03/09 08:17:50;;;;;;;;;2.67;1.33;;;;;13.37;100.00;99727.41;5052314;28;47954;-81
2023/03/09 08:20:15;;;;;;;;;5.00;2.33;;;;;13.41;100.00;99728.19;5035472;28;45548;-81
2023/03/09 08:22:41;;;;;;;;;3.67;1.00;;;;;13.47;100.00;99734.25;5037321;28;61753;-81
2023/03/09 08:25:07;;;;;;;;;4.00;0.33;;;;;13.50;100.00;99733.34;5018569;28;46296;-82
2023/03/09 08:27:46;;;;;;;;;4.00;3.00;;;;;13.53;100.00;99728.84;5034526;28;45497;-81
2023/03/09 08:30:12;;;;;;;;;1.00;1.00;;;;;13.61;100.00;99734.88;5031375;28;45466;-81
2023/03/09 08:32:39;;;;;;;;;2.33;1.00;;;;;13.67;100.00;99756.88;5021335;28;48215;-81
2023/03/09 08:35:04;;;;;;;;;7.33;1.00;;;;;13.72;100.00;99737.31;5055388;28;45359;-82
2023/03/09 08:37:30;;;;;;;;;8.00;3.00;;;;;13.79;100.00;99740.72;5053762;28;45315;-81
2023/03/09 08:39:56;;;;;;;;;2.00;1.00;;;;;13.85;100.00;99735.31;5056172;28;45234;-82
2023/03/09 08:42:21;;;;;;;;;8.33;3.00;;;;;13.88;100.00;99722.84;5056085;28;45895;-81
2023/03/09 08:44:46;;;;;;;;;1.00;1.00;;;;;13.96;100.00;99754.56;5046340;28;45471;-81
2023/03/09 08:47:12;;;;;;;;;4.67;1.67;;;;;14.03;100.00;99742.03;5050777;28;62325;-81
2023/03/09 08:49:40;;;;;;;;;3.00;2.00;;;;;14.08;100.00;99741.03;5047654;28;62776;-81
2023/03/09 08:52:06;;;;;;;;;6.00;1.00;;;;;14.15;100.00;99747.94;5052703;28;45700;-82
2023/03/09 08:54:31;;;;;;;;;5.67;2.67;;;;;14.24;100.00;99748.66;5051650;28;45418;-81
2023/03/09 08:56:56;;;;;;;;;3.00;1.33;;;;;14.24;100.00;99753.97;5053210;28;45507;-80
2023/03/09 08:59:22;;;;;;;;;4.67;1.33;;;;;14.30;100.00;99745.88;5054469;28;59967;-81
2023/03/09 09:01:47;;;;;;;;;4.00;2.00;;;;;14.32;100.00;99742.25;5031703;28;64022;-81
2023/03/09 09:04:12;;;;;;;;;3.00;2.00;;;;;14.35;100.00;99744.88;5045685;28;67181;-81
2023/03/09 09:06:38;;;;;;;;;4.33;1.67;;;;;14.40;100.00;99748.31;5053019;28;45607;-81
2023/03/09 09:09:04;;;;;;;;;6.33;2.00;;;;;14.47;100.00;99756.13;5048559;28;45529;-81
2023/03/09 09:11:29;;;;;;;;;5.00;0.67;;;;;14.48;100.00;99732.22;5054054;28;46642;-81
2023/03/09 09:13:55;;;;;;;;;5.00;1.67;;;;;14.55;100.00;99738.28;5048585;28;45392;-82
2023/03/09 09:16:20;;;;;;;;;11.67;2.00;;;;;14.60;100.00;99741.72;5052399;28;58168;-82
2023/03/09 09:18:47;;;;;;;;;3.33;2.00;;;;;14.67;100.00;99743.31;5049810;28;53991;-82
2023/03/09 09:21:14;;;;;;;;;4.00;1.00;;;;;14.76;100.00;99737.78;5053591;28;47021;-82
2023/03/09 09:23:42;;;;;;;;;6.33;2.00;;;;;14.81;100.00;99745.66;5051756;28;45308;-81
2023/03/09 09:26:08;;;;;;;;;6.00;1.67;;;;;14.86;100.00;99739.31;5028829;28;45442;-81
2023/03/09 09:28:34;;;;;;;;;6.67;2.00;;;;;14.91;100.00;99740.09;5027150;28;45289;-81
2023/03/09 09:31:03;;;;;;;;;6.67;2.00;;;;;14.97;100.00;99731.09;5019460;28;48014;-81
2023/03/09 09:33:30;;;;;;;;;3.33;2.67;;;;;15.06;100.00;99729.97;5053030;28;45416;-81
2023/03/09 09:36:09;;;;;;;;;2.00;2.00;;;;;15.11;100.00;99725.41;5053044;28;45522;-81
2023/03/09 09:38:34;;;;;;;;;2.00;2.00;;;;;15.18;100.00;99721.69;5021954;28;45367;-81
2023/03/09 09:41:04;;;;;;;;;6.00;0.00;;;;;15.19;100.00;99721.66;5029425;28;48884;-81
2023/03/09 09:43:31;;;;;;;;;4.00;3.00;;;;;15.19;100.00;99734.06;5028602;28;45496;-81
2023/03/09 09:45:59;;;;;;;;;6.00;3.00;;;;;15.23;100.00;99722.41;5039560;28;45376;-80
2023/03/09 09:48:25;;;;;;;;;4.00;3.00;;;;;15.25;100.00;99717.97;5036798;28;45491;-81
2023/03/09 09:51:18;;;;;;;;;1.67;1.67;;;;;15.22;100.00;99722.47;5027965;28;47514;-82
2023/03/09 09:53:58;;;;;;;;;6.00;2.33;;;;;15.23;100.00;99727.75;5052089;28;45643;-80
2023/03/09 09:56:27;;;;;;;;;4.67;2.00;;;;;15.26;100.00;99727.69;5054088;28;45497;-80
2023/03/09 09:59:05;;;;;;;;;3.33;2.00;;;;;15.35;100.00;99714.16;5045445;28;45573;-80
2023/03/09 10:01:43;;;;;;;;;3.67;1.67;;;;;15.51;100.00;99727.03;5041689;28;47500;-80
2023/03/09 10:04:21;;;;;;;;;5.67;2.00;;;;;15.59;100.00;99709.94;5037803;28;45571;-80
2023/03/09 10:06:48;;;;;;;;;3.67;1.00;;;;;15.64;100.00;99725.81;5036405;28;45666;-80
2023/03/09 10:09:24;;;;;;;;;8.00;4.00;;;;;15.68;100.00;99712.38;5039143;28;45438;-80
2023/03/09 10:11:53;;;;;;;;;10.33;2.00;;;;;15.70;100.00;99715.00;5053888;28;45692;-80
2023/03/09 10:14:39;;;;;;;;;4.33;1.33;;;;;15.69;100.00;99718.56;5041233;28;45507;-80
2023/03/09 10:17:17;;;;;;;;;10.00;2.33;;;;;15.64;100.00;99707.19;5035942;28;45470;-80
2023/03/09 10:19:43;;;;;;;;;6.33;2.00;;;;;15.71;100.00;99714.97;5046271;28;45474;-79
2023/03/09 10:22:11;;;;;;;;;6.00;2.00;;;;;15.80;100.00;99726.25;5060466;28;47690;-80
2023/03/09 10:24:43;;;;;;;;;6.67;2.33;;;;;15.85;100.00;99719.88;5058055;28;45260;-79
2023/03/09 10:27:24;;;;;;;;;4.33;1.00;;;;;15.93;100.00;99723.22;5058108;28;45379;-81
2023/03/09 10:30:01;;;;;;;;;3.00;3.00;;;;;15.94;100.00;99727.63;5051939;28;45590;-79
2023/03/09 10:32:54;;;;;;;;;6.33;1.00;;;;;15.91;100.00;99710.84;5053283;28;45577;-79
2023/03/09 10:35:49;;;;;;;;;4.00;2.33;;;;;15.96;100.00;99725.78;5035424;28;45479;-80
2023/03/09 10:38:16;;;;;;;;;7.67;2.67;;;;;16.03;100.00;99712.28;5056668;28;45289;-79
2023/03/09 10:40:53;;;;;;;;;5.67;3.00;;;;;16.05;100.00;99702.47;5051851;28;45557;-81
2023/03/09 10:43:33;;;;;;;;;4.00;2.00;;;;;16.08;100.00;99703.25;5043436;28;46161;-81
2023/03/09 10:46:14;;;;;;;;;6.67;2.67;;;;;16.09;100.00;99702.34;5023200;28;45497;-80
2023/03/09 10:48:41;;;;;;;;;2.00;2.00;;;;;16.04;100.00;99704.28;5041738;28;45527;-80
2023/03/09 10:51:25;;;;;;;;;3.33;1.00;;;;;16.02;100.00;99697.22;5036366;28;45585;-81
2023/03/09 10:53:52;;;;;;;;;6.67;1.33;;;;;15.93;100.00;99712.56;5045659;28;46401;-80
2023/03/09 10:56:28;;;;;;;;;9.67;1.00;;;;;15.83;100.00;99711.09;5026487;28;45582;-81
2023/03/09 10:59:03;;;;;;;;;5.00;1.67;;;;;15.79;100.00;99711.22;5034488;28;45484;-80
2023/03/09 11:01:29;;;;;;;;;6.33;2.00;;;;;15.80;100.00;99708.50;5041100;28;45490;-82
2023/03/09 11:03:55;;;;;;;;;4.00;2.00;;;;;15.88;100.00;99705.63;5048525;28;46945;-80
2023/03/09 11:06:26;;;;;;;;;4.00;1.33;;;;;15.91;100.00;99694.88;5045135;28;45693;-81
2023/03/09 11:09:12;;;;;;;;;5.00;1.33;;;;;15.94;100.00;99695.69;5039638;28;45543;-80
2023/03/09 11:11:39;;;;;;;;;6.33;1.00;;;;;16.00;100.00;99691.97;5044279;28;45458;-81
2023/03/09 11:14:05;;;;;;;;;7.00;5.33;;;;;16.03;100.00;99698.97;5039804;28;47692;-81
2023/03/09 11:16:36;;;;;;;;;2.67;2.00;;;;;16.07;100.00;99692.66;5027854;28;45475;-82
2023/03/09 11:19:15;;;;;;;;;8.00;1.00;;;;;16.11;100.00;99689.84;5029592;28;45385;-83
2023/03/09 11:22:03;;;;;;;;;4.33;2.33;;;;;16.18;100.00;99682.53;5027026;28;45524;-80
2023/03/09 11:24:34;;;;;;;;;4.00;2.00;;;;;16.24;100.00;99704.56;5025120;28;46985;-78